Strona główna
METAR-TAF:

METAR-TAF

Lotnisko :

Wunstorf, Niemcy

Szerokość geograficzna: 52-27N, Długość geograficzna: 009-26E, wysokość: 57 m

Aktualna obserwacja pogody

Raport powstał 1 godzina i 8 minut temu, godzina 23:20 UTC
Wiatr 5 kt od wschód
Temperatura 24°C
Wilgotność 57%
Ciśnienie 1018 hPa
Widzialność 10 km lub więcej

METAR: ETNW 232320Z 10005KT 9999 24/15 Q1018 BLU+

czas: 02:28 (00:28 UTC)

Prognoza

Raport powstał 2 godziny i 28 minut temu, godzina 22:00 UTC
Prognoza ważna od 23 godzina 23 UTC do 24 godzina 23 UTC
Wiatr 3 kt z kierunków zmiennych
Widzialność 10 km lub więcej
bezchmurnie
Stopniowe zmiany
od 24 godzina 07 UTC do 24 godzina 09 UTC
Wiatr 8 kt od południowy wschód
Widzialność 10 km lub więcej
bezchmurnie

TAF: ETNW 232200Z 2323/2423 VRB03KT 9999 NSW SKC BECMG 2407/2409 13008KT 9999 NSW SKC BY ETGL

Obserwacja i prognoza pogody dla ponad 4000 lotnisk (raport METAR i TAF).

Dostępne stacje oznaczono żółtymi i czerwonymi punktami na mapie.

Najedź kursorem aby zobaczyć nazwę stacji.

Kliknij aby zobaczyć obserwacje i prognozy pogody.

Aby zmienić mapę: kliknij na zielony przycisk z czarnym krzyżykiem, aby powiększyć; na zielony przycisk z myślnikiem, aby pomniejszyć; na zielone strzałki, aby przejść do map sąsiednich.


METAR-TAF: